• Join FlightAware (Why Join?)
  • Login
  • US Flag 
11:03AM EDT


 

Airport Tracker/Info


-or-


 

Live Flight TrackerFlight Track Log ✈ N185PF ✈ 03-Feb-2014 ✈ KFBL - KMHE

Flight Track Log - Related Links

Times and Time Zones

All times are in EST time to prevent confusion due to time zone crossing. See the N185PF flight status page for this flight to view local times or setup timezone preferences in your user account.

Time Position Orientation Groundspeed Altitude Reporting Facility
EST Latitude Longitude Course Direction KTS MPH feet Rate Location/Type
11:11AM 44.3256 -93.3928 284° West 74 85 4,100  Level Minneapolis Center
11:12AM 44.3303 -93.4189 284° West 79 91 5,000 840 Climbing Minneapolis Center
11:13AM 44.3422 -93.4417 306° West 74 85 5,900 480 Climbing Minneapolis Center
11:14AM 44.3564 -93.4711 304° West 89 102 6,000  Climbing Minneapolis Center
11:16AM 44.3703 -93.5100 297° West 109 125 6,000  Level Minneapolis Center
11:17AM 44.3683 -93.5519 266° West 109 125 6,000  Level Minneapolis Center
11:18AM 44.3542 -93.5889 242° Southwest 109 125 6,000  Level Minneapolis Center
11:19AM 44.3386 -93.6336 244° Southwest 107 123 6,000  Level Minneapolis Center
11:20AM 44.3250 -93.6717 243° Southwest 110 127 6,000  Level Minneapolis Center
11:21AM 44.3103 -93.7078 240° Southwest 109 125 6,000  Level Minneapolis Center
11:22AM 44.2950 -93.7450 240° Southwest 111 128 6,000  Level Minneapolis Center
11:23AM 44.2794 -93.7814 239° Southwest 109 125 6,000  Level Minneapolis Center
11:24AM 44.2633 -93.8172 238° Southwest 109 125 6,000  Level Minneapolis Center
11:25AM 44.2461 -93.8550 238° Southwest 115 132 6,000  Level Minneapolis Center
11:26AM 44.2256 -93.8975 236° Southwest 114 131 6,000  Level Minneapolis Center
11:27AM 44.2117 -93.9353 243° Southwest 110 127 6,000  Level Minneapolis Center
11:28AM 44.1983 -93.9731 244° Southwest 110 127 6,100  Climbing Minneapolis Center
11:29AM 44.1856 -94.0117 245° Southwest 110 127 6,000  Descending Minneapolis Center
11:30AM 44.1711 -94.0508 243° Southwest 113 130 6,100  Climbing Minneapolis Center
11:31AM 44.1586 -94.0889 245° Southwest 109 125 6,100 -60 Level Minneapolis Center
11:32AM 44.1456 -94.1267 244° Southwest 108 124 6,000 -60 Descending Minneapolis Center
11:33AM 44.1300 -94.1736 245° Southwest 110 127 6,000  Level Minneapolis Center
11:34AM 44.1186 -94.2128 248° West 108 124 6,000  Level Minneapolis Center
11:35AM 44.1058 -94.2519 246° West 111 128 6,000  Level Minneapolis Center
11:36AM 44.0936 -94.2911 247° West 110 127 6,000  Level Minneapolis Center
11:37AM 44.0817 -94.3303 247° West 110 127 6,100  Climbing Minneapolis Center
11:38AM 44.0681 -94.3750 247° West 111 128 6,000 -60 Descending Minneapolis Center
11:39AM 44.0550 -94.4131 244° Southwest 110 127 6,000  Level Minneapolis Center
11:40AM 44.0400 -94.4522 242° Southwest 113 130 6,000  Level Minneapolis Center
11:41AM 44.0275 -94.4906 246° West 111 128 6,000  Level Minneapolis Center
11:42AM 44.0136 -94.5306 244° Southwest 114 131 6,000  Level Minneapolis Center
11:43AM 44.0017 -94.5692 247° West 111 128 6,000  Level Minneapolis Center
11:44AM 43.9831 -94.6150 241° Southwest 113 130 6,000  Level Minneapolis Center
11:45AM 43.9686 -94.6544 243° Southwest 114 131 6,000  Level Minneapolis Center
11:46AM 43.9547 -94.6947 244° Southwest 115 132 6,000  Level Minneapolis Center
11:47AM 43.9422 -94.7356 247° West 115 132 6,000  Level Minneapolis Center
11:48AM 43.9286 -94.7761 245° Southwest 116 133 6,000  Level Minneapolis Center
11:50AM 43.9200 -94.8178 254° West 114 131 6,000  Level Minneapolis Center
11:51AM 43.9072 -94.8578 246° West 114 131 6,000  Level Minneapolis Center
11:52AM 43.8881 -94.9056 241° Southwest 117 135 6,000  Level Minneapolis Center
11:53AM 43.8742 -94.9472 245° Southwest 119 137 6,000  Level Minneapolis Center
11:54AM 43.8611 -94.9864 245° Southwest 115 132 6,000  Level Minneapolis Center
11:55AM 43.8486 -95.0272 247° West 115 132 6,000  Level Minneapolis Center
11:56AM 43.8342 -95.0697 245° Southwest 118 136 6,000  Level Minneapolis Center
11:57AM 43.8203 -95.1106 245° Southwest 119 137 6,000  Level Minneapolis Center
11:58AM 43.8050 -95.1497 242° Southwest 117 135 6,000  Level Minneapolis Center
11:59AM 43.7883 -95.1981 244° Southwest 116 133 6,000  Level Minneapolis Center
12:00PM 43.7739 -95.2403 245° Southwest 118 136 6,100  Climbing Minneapolis Center
12:01PM 43.7608 -95.2814 246° West 119 137 6,000 -60 Descending Minneapolis Center
12:02PM 43.7458 -95.3239 244° Southwest 119 137 6,000  Level Minneapolis Center
12:03PM 43.7303 -95.3647 242° Southwest 120 138 6,000  Level Minneapolis Center
12:04PM 43.7150 -95.4056 243° Southwest 120 138 6,000  Level Minneapolis Center
12:05PM 43.6961 -95.4544 242° Southwest 120 138 6,000  Level Minneapolis Center
12:06PM 43.6806 -95.4953 242° Southwest 120 138 6,000  Level Minneapolis Center
12:07PM 43.6639 -95.5344 240° Southwest 119 137 6,100  Climbing Minneapolis Center
12:08PM 43.6503 -95.5794 247° West 122 140 6,000 -60 Descending Minneapolis Center
12:09PM 43.6486 -95.6264 267° West 122 140 6,000  Level Minneapolis Center
12:10PM 43.6492 -95.6722 271° West 122 140 6,000  Level Minneapolis Center
12:11PM 43.6486 -95.7175 269° West 120 138 6,000  Level Minneapolis Center
12:12PM 43.6500 -95.7728 272° West 120 138 6,000  Level Minneapolis Center
12:13PM 43.6497 -95.8186 270° West 120 138 6,000  Level Minneapolis Center
12:14PM 43.6506 -95.8644 271° West 120 138 6,000  Level Minneapolis Center
12:15PM 43.6519 -95.9114 272° West 121 139 6,000  Level Minneapolis Center
12:16PM 43.6522 -95.9575 270° West 121 139 6,000  Level Minneapolis Center
12:17PM 43.6539 -96.0053 273° West 122 140 6,000  Level Minneapolis Center
12:18PM 43.6531 -96.0514 269° West 122 140 6,000  Level Minneapolis Center
12:19PM 43.6542 -96.1075 272° West 122 140 6,000  Level Minneapolis Center
12:20PM 43.6556 -96.1539 272° West 122 140 6,000  Level Minneapolis Center
12:21PM 43.6564 -96.2014 271° West 122 140 6,000  Level Minneapolis Center
12:22PM 43.6575 -96.2478 272° West 122 140 6,000  Level Minneapolis Center
12:24PM 43.6578 -96.2947 270° West 123 142 6,000  Level Minneapolis Center
12:25PM 43.6583 -96.3411 271° West 121 139 6,000  Level Minneapolis Center
12:26PM 43.6578 -96.3875 269° West 121 139 6,000  Level Minneapolis Center
12:27PM 43.6564 -96.4347 268° West 122 140 6,000  Level Minneapolis Center
12:28PM 43.6569 -96.4903 271° West 121 139 6,000  Level Minneapolis Center
12:29PM 43.6564 -96.5389 269° West 123 142 6,000  Level Minneapolis Center
12:30PM 43.6553 -96.5856 268° West 123 142 6,000  Level Minneapolis Center
12:31PM 43.6550 -96.6319 270° West 122 140 6,000  Level Minneapolis Center
12:32PM 43.6539 -96.6781 268° West 121 139 6,000  Level Minneapolis Center
12:33PM 43.6514 -96.7258 266° West 123 142 6,000  Level Minneapolis Center
12:34PM 43.6500 -96.7808 268° West 122 140 6,000  Level Minneapolis Center
12:35PM 43.6544 -96.8269 278° West 121 139 6,100  Climbing Minneapolis Center
12:36PM 43.6600 -96.8739 279° West 121 139 6,000 -60 Descending Minneapolis Center
12:37PM 43.6653 -96.9200 279° West 122 140 6,000  Level Minneapolis Center
12:38PM 43.6692 -96.9664 277° West 122 140 6,000  Level Minneapolis Center
12:39PM 43.6747 -97.0128 279° West 122 140 6,000  Level Minneapolis Center
12:40PM 43.6808 -97.0583 281° West 121 139 6,000  Level Minneapolis Center
12:41PM 43.6869 -97.1136 279° West 122 140 6,000  Level Minneapolis Center
12:42PM 43.6919 -97.1600 278° West 121 139 6,000  Level Minneapolis Center
12:43PM 43.6975 -97.2061 279° West 122 140 6,000  Level Minneapolis Center
12:44PM 43.7025 -97.2519 279° West 121 139 6,000  Level Minneapolis Center
12:45PM 43.7067 -97.2967 277° West 120 138 6,000  Level Minneapolis Center
12:46PM 43.7106 -97.3442 276° West 122 140 6,000  Level Minneapolis Center
12:47PM 43.7161 -97.3917 279° West 123 142 6,000  Level Minneapolis Center
12:48PM 43.7211 -97.4389 278° West 124 143 6,000  Level Minneapolis Center
12:49PM 43.7228 -97.4917 273° West 121 139 6,000  Level Minneapolis Center
12:50PM 43.7297 -97.5397 281° West 121 139 6,000  Level Minneapolis Center
12:51PM 43.7356 -97.5856 280° West 122 140 6,000  Level Minneapolis Center
12:52PM 43.7400 -97.6317 278° West 122 140 6,000  Level Minneapolis Center
12:53PM 43.7456 -97.6781 279° West 122 140 6,000  Level Minneapolis Center
12:54PM 43.7506 -97.7239 279° West 122 140 6,000  Level Minneapolis Center
12:55PM 43.7556 -97.7700 279° West 122 140 6,000  Level Minneapolis Center
12:56PM 43.7625 -97.8258 280° West 122 140 6,000  Level Minneapolis Center
12:57PM 43.7686 -97.8719 280° West 122 140 6,000 -180 Level Minneapolis Center
12:59PM 43.7750 -97.9206 280° West 124 143 5,700 -540 Descending Minneapolis Center
01:00PM 43.7742 -97.9703 269° West 127 146 4,900 -660 Descending Minneapolis Center
01:01PM 43.7714 -98.0208 266° West 130 150 4,400 -420 Descending Minneapolis Center
01:02PM 43.7789 -98.0794 280° West 131 151 4,100 -300 Descending Minneapolis Center
01:04PM 43.7667 -98.0333 270° West  Level FlightAware Approximate
01:11PM 43.7748 -98.0386 270° West  Level Estimated
01:12PM 43.7748 -98.0386 270° West  Level Estimated
01:13PM 43.7748 -98.0386 270° West  Level Estimated
01:14PM 43.7748 -98.0386 270° West  Level Estimated
01:15PM 43.7748 -98.0386 270° West  Level Estimated
01:16PM 43.7748 -98.0386 270° West  Level Estimated
01:17PM 43.7748 -98.0386 270° West  Level Estimated